Time;durP1;ratioP1;P1;durP2;ratioP2;P2;SDS_P1;SDS_P2;PMS_P1;PMS_P2;Temp;Humidity;BMP_temperature;BMP_pressure;BME280_temperature;BME280_humidity;BME280_pressure;Samples;Min_cycle;Max_cycle;Signal;HPM_P1;HPM_P2
2024/04/21 00:00:28;;;;;;;;;;;20.10;51.30;;;;;;1605469;73;1131;-67
2024/04/21 00:02:30;;;;;;;;;;;20.10;51.30;;;;;;1604853;73;690;-68
2024/04/21 00:04:32;;;;;;;;;;;20.10;51.30;;;;;;1603404;73;784;-67
2024/04/21 00:06:34;;;;;;;;;;;20.10;51.30;;;;;;1603057;73;1418;-67
2024/04/21 00:08:36;;;;;;;;;;;20.10;51.30;;;;;;1599025;73;1350;-69
2024/04/21 00:10:38;;;;;;;;;;;20.10;51.30;;;;;;1603667;73;1159;-70
2024/04/21 00:12:40;;;;;;;;;;;20.10;51.30;;;;;;1598792;73;741;-73
2024/04/21 00:14:41;;;;;;;;;;;20.10;51.40;;;;;;1602315;73;667;-71
2024/04/21 00:16:43;;;;;;;;;;;20.80;51.70;;;;;;1599003;73;694;-67
2024/04/21 00:18:45;;;;;;;;;;;20.00;51.30;;;;;;1588331;73;1949;-70
2024/04/21 00:20:47;;;;;;;;;;;20.10;51.40;;;;;;1591812;73;1566;-67
2024/04/21 00:22:49;;;;;;;;;;;20.10;51.30;;;;;;1610107;73;797;-72
2024/04/21 00:24:51;;;;;;;;;;;20.10;51.30;;;;;;1597686;73;673;-72
2024/04/21 00:26:53;;;;;;;;;;;20.10;51.40;;;;;;1599526;73;721;-68
2024/04/21 00:28:55;;;;;;;;;;;20.10;51.40;;;;;;1597740;73;689;-72
2024/04/21 00:30:57;;;;;;;;;;;20.00;51.40;;;;;;1607973;73;1143;-70
2024/04/21 00:32:59;;;;;;;;;;;20.10;51.50;;;;;;1594412;73;668;-71
2024/04/21 00:35:01;;;;;;;;;;;20.10;51.40;;;;;;1603469;73;1325;-70
2024/04/21 00:37:03;;;;;;;;;;;20.10;51.50;;;;;;1602619;73;658;-67
2024/04/21 00:39:05;;;;;;;;;;;20.00;51.40;;;;;;1602367;73;1932;-68
2024/04/21 00:41:07;;;;;;;;;;;20.10;51.50;;;;;;1601226;73;1127;-68
2024/04/21 00:43:09;;;;;;;;;;;20.10;51.50;;;;;;1595356;73;681;-70
2024/04/21 00:45:11;;;;;;;;;;;20.20;51.50;;;;;;1606328;73;728;-67
2024/04/21 00:47:13;;;;;;;;;;;20.10;51.50;;;;;;1600158;73;782;-66
2024/04/21 00:49:15;;;;;;;;;;;20.00;51.50;;;;;;1598436;73;1575;-68
2024/04/21 00:51:20;;;;;;;;;;;20.10;51.60;;;;;;1598612;73;1139;-68
2024/04/21 00:53:22;;;;;;;;;;;20.00;51.50;;;;;;1602608;73;736;-68
2024/04/21 00:55:24;;;;;;;;;;;20.00;51.50;;;;;;1606285;73;751;-67
2024/04/21 00:57:26;;;;;;;;;;;20.10;51.60;;;;;;1603562;73;659;-66
2024/04/21 00:59:28;;;;;;;;;;;20.10;51.70;;;;;;1601527;73;1936;-67
2024/04/21 01:01:30;;;;;;;;;;;20.00;51.50;;;;;;1602381;73;1110;-67
2024/04/21 01:03:32;;;;;;;;;;;20.10;51.70;;;;;;1600320;73;1530;-70
2024/04/21 01:05:34;;;;;;;;;;;20.10;51.60;;;;;;1599733;73;764;-67
2024/04/21 01:07:37;;;;;;;;;;;20.10;51.60;;;;;;1594388;73;739;-66
2024/04/21 01:09:39;;;;;;;;;;;20.10;51.70;;;;;;1595100;73;1191;-66
2024/04/21 01:11:50;;;;;;;;;;;20.10;51.70;;;;;;1597548;73;755;-67
2024/04/21 01:13:52;;;;;;;;;;;20.00;51.50;;;;;;1596760;73;704;-68
2024/04/21 01:15:54;;;;;;;;;;;20.00;51.50;;;;;;1595058;73;795;-69
2024/04/21 01:17:56;;;;;;;;;;;20.10;51.70;;;;;;1598600;73;1360;-69
2024/04/21 01:19:58;;;;;;;;;;;20.10;51.70;;;;;;1595095;73;1921;-69
2024/04/21 01:22:00;;;;;;;;;;;20.00;51.50;;;;;;1599720;73;728;-69
2024/04/21 01:24:02;;;;;;;;;;;20.10;51.70;;;;;;1598423;73;677;-67
2024/04/21 01:26:04;;;;;;;;;;;20.10;51.70;;;;;;1593257;73;749;-67
2024/04/21 01:28:06;;;;;;;;;;;20.10;51.70;;;;;;1601928;73;708;-67
2024/04/21 01:30:08;;;;;;;;;;;20.10;51.70;;;;;;1594152;73;1153;-70
2024/04/21 01:32:20;;;;;;;;;;;20.10;51.70;;;;;;1591243;73;1612;-70
2024/04/21 01:34:22;;;;;;;;;;;20.00;51.50;;;;;;1605851;73;1671;-68
2024/04/21 01:36:24;;;;;;;;;;;20.00;51.50;;;;;;1598433;73;585;-68
2024/04/21 01:38:26;;;;;;;;;;;20.10;51.70;;;;;;1599626;73;764;-68
2024/04/21 01:40:28;;;;;;;;;;;20.10;51.70;;;;;;1599775;73;1919;-68
2024/04/21 01:42:30;;;;;;;;;;;20.10;51.70;;;;;;1601615;73;752;-69
2024/04/21 01:44:32;;;;;;;;;;;20.10;51.60;;;;;;1599246;73;664;-69
2024/04/21 01:46:34;;;;;;;;;;;20.00;51.60;;;;;;1602839;73;1418;-70
2024/04/21 01:48:35;;;;;;;;;;;20.00;51.50;;;;;;1599129;73;811;-69
2024/04/21 01:50:37;;;;;;;;;;;20.00;51.60;;;;;;1599470;73;1148;-67
2024/04/21 01:52:39;;;;;;;;;;;20.00;51.60;;;;;;1596750;73;667;-73
2024/04/21 01:54:41;;;;;;;;;;;20.00;51.50;;;;;;1593545;73;594;-66
2024/04/21 01:56:43;;;;;;;;;;;20.10;51.70;;;;;;1592454;73;664;-73
2024/04/21 01:58:45;;;;;;;;;;;20.00;51.60;;;;;;1589638;73;1527;-68
2024/04/21 02:00:47;;;;;;;;;;;20.00;51.60;;;;;;1600841;73;1931;-71
2024/04/21 02:02:49;;;;;;;;;;;20.10;51.70;;;;;;1571988;74;696;-67
2024/04/21 02:04:51;;;;;;;;;;;20.00;51.50;;;;;;1593840;73;693;-67
2024/04/21 02:06:53;;;;;;;;;;;20.10;51.70;;;;;;1609924;73;786;-66
2024/04/21 02:08:55;;;;;;;;;;;20.10;51.70;;;;;;1592332;73;741;-67
2024/04/21 02:10:57;;;;;;;;;;;20.10;51.70;;;;;;1595833;73;1161;-67
2024/04/21 02:12:59;;;;;;;;;;;20.10;51.70;;;;;;1598437;73;1364;-69
2024/04/21 02:15:01;;;;;;;;;;;20.10;51.70;;;;;;1594366;73;808;-70
2024/04/21 02:17:03;;;;;;;;;;;20.10;51.80;;;;;;1599319;73;719;-67
2024/04/21 02:19:08;;;;;;;;;;;20.10;51.70;;;;;;1593945;73;1933;-67
2024/04/21 02:21:08;;;;;;;;;;;20.10;51.80;;;;;;1605915;73;1666;-69
2024/04/21 02:23:10;;;;;;;;;;;20.10;51.80;;;;;;1593593;73;724;-66
2024/04/21 02:25:12;;;;;;;;;;;20.20;51.80;;;;;;1601787;73;747;-67
2024/04/21 02:27:14;;;;;;;;;;;20.00;51.70;;;;;;1599215;73;1565;-68
2024/04/21 02:29:16;;;;;;;;;;;20.00;51.70;;;;;;1604301;73;715;-65
2024/04/21 02:31:18;;;;;;;;;;;20.00;51.70;;;;;;1599320;73;1117;-69
2024/04/21 02:33:23;;;;;;;;;;;20.10;51.80;;;;;;1596263;73;729;-71
2024/04/21 02:35:25;;;;;;;;;;;20.10;51.80;;;;;;1600861;73;801;-67
2024/04/21 02:37:27;;;;;;;;;;;20.10;51.80;;;;;;1594563;73;650;-69
2024/04/21 02:39:29;;;;;;;;;;;20.10;51.80;;;;;;1582343;73;1936;-68
2024/04/21 02:41:31;;;;;;;;;;;20.00;51.70;;;;;;1594193;73;1517;-68
2024/04/21 02:43:33;;;;;;;;;;;20.10;51.80;;;;;;1593180;73;639;-69
2024/04/21 02:45:35;;;;;;;;;;;20.70;52.20;;;;;;1599106;73;716;-67
2024/04/21 02:47:36;;;;;;;;;;;20.00;51.70;;;;;;1593569;73;643;-66
2024/04/21 02:49:38;;;;;;;;;;;20.00;51.80;;;;;;1599090;73;1166;-67
2024/04/21 02:51:40;;;;;;;;;;;20.00;51.70;;;;;;1597087;73;664;-69
2024/04/21 02:53:42;;;;;;;;;;;20.00;51.80;;;;;;1584913;73;611;-71
2024/04/21 02:55:44;;;;;;;;;;;20.10;51.90;;;;;;1586760;73;1565;-66
2024/04/21 02:57:46;;;;;;;;;;;20.10;51.90;;;;;;1596295;73;732;-67
2024/04/21 02:59:48;;;;;;;;;;;20.40;51.90;;;;;;1596601;73;1944;-68
2024/04/21 03:01:50;;;;;;;;;;;20.00;51.70;;;;;;1586386;73;662;-69
2024/04/21 03:03:51;;;;;;;;;;;20.10;51.80;;;;;;1603781;73;1259;-68
2024/04/21 03:05:54;;;;;;;;;;;20.00;51.70;;;;;;1597558;73;682;-68
2024/04/21 03:07:57;;;;;;;;;;;20.00;51.60;;;;;;1596953;73;754;-66
2024/04/21 03:09:59;;;;;;;;;;;20.00;51.70;;;;;;1586474;73;1356;-68
2024/04/21 03:12:01;;;;;;;;;;;20.10;51.80;;;;;;1593694;73;694;-68
2024/04/21 03:14:03;;;;;;;;;;;20.00;51.80;;;;;;1600865;73;737;-67
2024/04/21 03:16:05;;;;;;;;;;;20.00;51.80;;;;;;1607202;73;712;-66
2024/04/21 03:18:06;;;;;;;;;;;20.00;51.80;;;;;;1591993;73;841;-66
2024/04/21 03:20:08;;;;;;;;;;;20.00;51.80;;;;;;1596837;73;1990;-73
2024/04/21 03:22:10;;;;;;;;;;;20.00;51.90;;;;;;1601136;73;738;-67
2024/04/21 03:24:12;;;;;;;;;;;20.00;51.90;;;;;;1592052;73;1524;-73
2024/04/21 03:26:14;;;;;;;;;;;20.70;52.40;;;;;;1605012;73;638;-67
2024/04/21 03:28:16;;;;;;;;;;;20.00;52.00;;;;;;1593848;73;646;-66
2024/04/21 03:30:18;;;;;;;;;;;20.10;52.20;;;;;;1591354;73;1184;-71
2024/04/21 03:32:20;;;;;;;;;;;20.00;52.10;;;;;;1585858;73;647;-67
2024/04/21 03:34:22;;;;;;;;;;;20.10;52.30;;;;;;1593838;73;715;-69
2024/04/21 03:36:23;;;;;;;;;;;20.00;52.10;;;;;;1595566;73;648;-71
2024/04/21 03:38:25;;;;;;;;;;;20.10;52.30;;;;;;1599015;73;1581;-66
2024/04/21 03:40:27;;;;;;;;;;;20.00;52.20;;;;;;1592023;73;1936;-70
2024/04/21 03:42:29;;;;;;;;;;;20.00;52.20;;;;;;1598083;73;704;-67
2024/04/21 03:44:31;;;;;;;;;;;20.10;52.40;;;;;;1594340;73;752;-71
2024/04/21 03:46:33;;;;;;;;;;;20.00;52.30;;;;;;1588469;73;745;-69
2024/04/21 03:48:35;;;;;;;;;;;20.00;52.40;;;;;;1595120;73;737;-69
2024/04/21 03:50:37;;;;;;;;;;;20.10;52.50;;;;;;1597826;73;1146;-67
2024/04/21 03:52:39;;;;;;;;;;;20.00;52.50;;;;;;1596248;73;1589;-71
2024/04/21 03:54:41;;;;;;;;;;;20.00;52.40;;;;;;1594521;73;764;-67
2024/04/21 03:56:43;;;;;;;;;;;20.00;52.50;;;;;;1591068;73;741;-72
2024/04/21 03:58:45;;;;;;;;;;;20.00;52.50;;;;;;1591560;73;913;-71
2024/04/21 04:00:47;;;;;;;;;;;20.00;52.50;;;;;;1593377;73;2070;-66
2024/04/21 04:02:49;;;;;;;;;;;20.00;52.50;;;;;;1600076;73;728;-67
2024/04/21 04:04:51;;;;;;;;;;;20.10;52.70;;;;;;1595152;73;695;-73
2024/04/21 04:06:52;;;;;;;;;;;20.00;52.60;;;;;;1598477;73;1529;-67
2024/04/21 04:08:56;;;;;;;;;;;20.00;52.60;;;;;;1594781;73;670;-66
2024/04/21 04:10:57;;;;;;;;;;;20.00;52.60;;;;;;1590810;73;1160;-69
2024/04/21 04:12:59;;;;;;;;;;;20.00;52.70;;;;;;1597761;73;814;-71
2024/04/21 04:15:01;;;;;;;;;;;20.00;52.80;;;;;;1600760;73;701;-67
2024/04/21 04:17:03;;;;;;;;;;;20.00;52.80;;;;;;1591053;73;686;-70
2024/04/21 04:19:05;;;;;;;;;;;20.00;52.80;;;;;;1594118;73;746;-69
2024/04/21 04:21:07;;;;;;;;;;;20.10;53.00;;;;;;1596123;73;1941;-67
2024/04/21 04:23:10;;;;;;;;;;;20.00;52.90;;;;;;1591729;73;671;-70
2024/04/21 04:25:12;;;;;;;;;;;20.00;52.90;;;;;;1586703;73;675;-67
2024/04/21 04:27:14;;;;;;;;;;;20.00;53.00;;;;;;1596975;73;679;-67
2024/04/21 04:29:16;;;;;;;;;;;20.10;53.10;;;;;;1585389;73;727;-69
2024/04/21 04:31:19;;;;;;;;;;;20.00;53.10;;;;;;1597592;73;1154;-69
2024/04/21 04:33:21;;;;;;;;;;;20.00;53.20;;;;;;1599882;73;1359;-67
2024/04/21 04:35:23;;;;;;;;;;;20.00;53.40;;;;;;1605192;73;710;-68
2024/04/21 04:37:24;;;;;;;;;;;20.00;53.20;;;;;;1600112;73;687;-65
2024/04/21 04:39:26;;;;;;;;;;;20.00;53.20;;;;;;1596077;73;660;-68
2024/04/21 04:41:28;;;;;;;;;;;20.00;53.10;;;;;;1598234;73;1942;-67
2024/04/21 04:43:30;;;;;;;;;;;20.10;53.30;;;;;;1592306;73;648;-72
2024/04/21 04:45:32;;;;;;;;;;;20.00;53.10;;;;;;1584591;73;686;-68
2024/04/21 04:47:34;;;;;;;;;;;20.10;53.20;;;;;;1598742;73;1522;-69
2024/04/21 04:49:38;;;;;;;;;;;20.00;53.10;;;;;;1545148;75;677;-68
2024/04/21 04:51:40;;;;;;;;;;;20.00;53.00;;;;;;1583786;73;688;-67
2024/04/21 04:53:42;;;;;;;;;;;20.00;53.00;;;;;;1583071;73;733;-69
2024/04/21 04:55:44;;;;;;;;;;;20.00;53.00;;;;;;1580441;73;677;-67
2024/04/21 04:57:46;;;;;;;;;;;20.00;53.00;;;;;;1579002;73;718;-67
2024/04/21 04:59:47;;;;;;;;;;;20.00;53.00;;;;;;1583362;73;1116;-69
2024/04/21 05:01:49;;;;;;;;;;;20.00;52.90;;;;;;1580483;73;1929;-68
2024/04/21 05:03:51;;;;;;;;;;;20.00;53.00;;;;;;1587103;73;690;-71
2024/04/21 05:05:53;;;;;;;;;;;20.00;53.00;;;;;;1587029;73;704;-69
2024/04/21 05:07:55;;;;;;;;;;;20.00;53.00;;;;;;1584408;73;710;-67
2024/04/21 05:09:57;;;;;;;;;;;20.00;52.90;;;;;;1529822;75;1142;-66
2024/04/21 05:11:59;;;;;;;;;;;20.00;52.90;;;;;;1593304;73;672;-69
2024/04/21 05:14:01;;;;;;;;;;;20.00;53.00;;;;;;1602060;73;674;-69
2024/04/21 05:16:03;;;;;;;;;;;20.10;53.10;;;;;;1605068;73;1573;-70
2024/04/21 05:18:05;;;;;;;;;;;19.90;52.90;;;;;;1586980;73;725;-67
2024/04/21 05:20:07;;;;;;;;;;;20.00;52.90;;;;;;1598175;73;1984;-67
2024/04/21 05:22:09;;;;;;;;;;;20.00;52.90;;;;;;1591601;73;751;-73
2024/04/21 05:24:11;;;;;;;;;;;20.00;52.90;;;;;;1576718;73;728;-70
2024/04/21 05:26:12;;;;;;;;;;;20.00;52.90;;;;;;1594654;73;709;-67
2024/04/21 05:28:14;;;;;;;;;;;20.00;52.90;;;;;;1602719;73;682;-68
2024/04/21 05:30:16;;;;;;;;;;;20.00;52.90;;;;;;1598894;73;1573;-69
2024/04/21 05:32:18;;;;;;;;;;;20.00;52.90;;;;;;1601232;73;695;-68
2024/04/21 05:34:20;;;;;;;;;;;20.00;52.80;;;;;;1594931;73;703;-67
2024/04/21 05:36:22;;;;;;;;;;;20.00;52.90;;;;;;1595517;73;658;-68
2024/04/21 05:38:24;;;;;;;;;;;20.00;52.80;;;;;;1595995;73;959;-67
2024/04/21 05:40:26;;;;;;;;;;;20.10;53.00;;;;;;1596232;73;1944;-70
2024/04/21 05:42:28;;;;;;;;;;;20.00;52.80;;;;;;1599795;73;653;-68
2024/04/21 05:44:30;;;;;;;;;;;20.00;52.80;;;;;;1602844;73;1502;-70
2024/04/21 05:46:32;;;;;;;;;;;20.00;52.80;;;;;;1592920;73;681;-68
2024/04/21 05:48:34;;;;;;;;;;;20.00;52.80;;;;;;1589293;73;710;-72
2024/04/21 05:50:35;;;;;;;;;;;20.00;52.80;;;;;;1590521;73;1109;-71
2024/04/21 05:52:37;;;;;;;;;;;20.00;52.80;;;;;;1586237;73;696;-70
2024/04/21 05:54:39;;;;;;;;;;;19.90;52.80;;;;;;1595143;73;638;-68
2024/04/21 05:56:41;;;;;;;;;;;20.00;52.80;;;;;;1594092;73;645;-69
2024/04/21 05:58:43;;;;;;;;;;;20.00;52.80;;;;;;1600682;73;1551;-72
2024/04/21 06:00:45;;;;;;;;;;;20.00;52.80;;;;;;1590878;73;1923;-67
2024/04/21 06:02:47;;;;;;;;;;;20.00;52.80;;;;;;1599134;73;655;-69
2024/04/21 06:04:48;;;;;;;;;;;20.00;52.80;;;;;;1597015;73;696;-66
2024/04/21 06:06:51;;;;;;;;;;;20.00;52.80;;;;;;1605347;73;784;-72
2024/04/21 06:08:52;;;;;;;;;;;20.00;52.80;;;;;;1591070;73;842;-67
2024/04/21 06:10:56;;;;;;;;;;;20.00;52.80;;;;;;1587095;74;1132;-67
2024/04/21 06:12:58;;;;;;;;;;;20.00;52.80;;;;;;1601185;73;1346;-70
2024/04/21 06:15:00;;;;;;;;;;;19.90;52.80;;;;;;1593268;73;889;-72
2024/04/21 06:17:01;;;;;;;;;;;20.00;52.80;;;;;;1601028;73;700;-71
2024/04/21 06:19:03;;;;;;;;;;;20.00;52.90;;;;;;1598347;73;672;-68
2024/04/21 06:21:05;;;;;;;;;;;20.00;52.90;;;;;;1589207;73;1938;-70
2024/04/21 06:23:07;;;;;;;;;;;20.00;52.90;;;;;;1591308;73;736;-71
2024/04/21 06:25:09;;;;;;;;;;;19.90;52.90;;;;;;1594612;73;663;-70
2024/04/21 06:27:11;;;;;;;;;;;19.90;52.90;;;;;;1596847;73;1418;-71
2024/04/21 06:29:14;;;;;;;;;;;20.00;52.90;;;;;;1593277;73;713;-70
2024/04/21 06:31:16;;;;;;;;;;;20.00;52.90;;;;;;1584143;73;1101;-68
2024/04/21 06:33:18;;;;;;;;;;;20.00;52.90;;;;;;1593081;73;635;-72
2024/04/21 06:35:19;;;;;;;;;;;20.00;53.00;;;;;;1595176;73;618;-70
2024/04/21 06:37:21;;;;;;;;;;;20.00;52.90;;;;;;1604330;73;748;-68
2024/04/21 06:39:23;;;;;;;;;;;19.90;52.90;;;;;;1593235;73;806;-70
2024/04/21 06:41:25;;;;;;;;;;;20.00;52.90;;;;;;1592219;73;1937;-72
2024/04/21 06:43:27;;;;;;;;;;;19.90;52.90;;;;;;1587320;73;643;-72
2024/04/21 06:45:29;;;;;;;;;;;20.00;53.00;;;;;;1582383;73;705;-69
2024/04/21 06:47:31;;;;;;;;;;;20.10;53.00;;;;;;1601303;73;696;-70
2024/04/21 06:49:38;;;;;;;;;;;20.00;52.90;;;;;;1591800;73;727;-68
2024/04/21 06:51:37;;;;;;;;;;;20.00;53.00;;;;;;1582303;73;1590;-70
2024/04/21 06:53:38;;;;;;;;;;;20.00;53.00;;;;;;1592494;73;665;-67
2024/04/21 06:55:41;;;;;;;;;;;20.10;53.10;;;;;;1596698;73;1367;-67
2024/04/21 06:57:44;;;;;;;;;;;20.00;53.00;;;;;;1590423;73;664;-71
2024/04/21 06:59:46;;;;;;;;;;;20.00;53.00;;;;;;1598039;73;1151;-68
2024/04/21 07:01:49;;;;;;;;;;;20.20;53.10;;;;;;1596530;73;1932;-68
2024/04/21 07:03:51;;;;;;;;;;;19.90;53.00;;;;;;1602294;73;699;-67
2024/04/21 07:05:53;;;;;;;;;;;20.10;53.10;;;;;;1595174;73;798;-67
2024/04/21 07:07:55;;;;;;;;;;;20.00;53.00;;;;;;1588334;73;732;-68
2024/04/21 07:09:57;;;;;;;;;;;19.90;53.10;;;;;;1595409;73;1406;-71
2024/04/21 07:11:58;;;;;;;;;;;20.00;53.00;;;;;;1596932;73;790;-73
2024/04/21 07:14:00;;;;;;;;;;;20.00;53.10;;;;;;1601899;73;797;-67
2024/04/21 07:16:02;;;;;;;;;;;20.00;53.00;;;;;;1598894;73;717;-68
2024/04/21 07:18:04;;;;;;;;;;;20.00;53.10;;;;;;1594686;73;881;-69
2024/04/21 07:20:07;;;;;;;;;;;19.90;53.00;;;;;;1590690;73;1103;-70
2024/04/21 07:22:09;;;;;;;;;;;20.00;53.10;;;;;;1590413;73;1946;-70
2024/04/21 07:24:10;;;;;;;;;;;20.00;53.10;;;;;;1591413;73;612;-75
2024/04/21 07:26:14;;;;;;;;;;;20.00;53.10;;;;;;1592281;73;705;-67
2024/04/21 07:28:16;;;;;;;;;;;19.90;53.10;;;;;;1596559;73;683;-69
2024/04/21 07:30:18;;;;;;;;;;;20.00;53.10;;;;;;1604462;73;1176;-70
2024/04/21 07:32:20;;;;;;;;;;;19.90;53.10;;;;;;1597339;73;632;-68
2024/04/21 07:34:22;;;;;;;;;;;20.00;53.10;;;;;;1597881;73;721;-67
2024/04/21 07:36:23;;;;;;;;;;;19.90;53.10;;;;;;1599245;73;1588;-70
2024/04/21 07:38:25;;;;;;;;;;;20.00;53.30;;;;;;1591885;73;788;-71
2024/04/21 07:40:29;;;;;;;;;;;19.90;53.40;;;;;;1586700;73;1130;-69
2024/04/21 07:42:32;;;;;;;;;;;19.90;53.30;;;;;;1590976;73;1908;-72
2024/04/21 07:44:33;;;;;;;;;;;19.90;53.40;;;;;;1589347;73;677;-66
2024/04/21 07:46:35;;;;;;;;;;;20.00;53.30;;;;;;1593493;73;753;-69
2024/04/21 07:48:37;;;;;;;;;;;20.00;53.40;;;;;;1585763;73;631;-73
2024/04/21 07:50:39;;;;;;;;;;;19.90;53.30;;;;;;1586513;73;1217;-67
2024/04/21 07:52:41;;;;;;;;;;;19.90;53.40;;;;;;1600673;73;714;-70
2024/04/21 07:54:43;;;;;;;;;;;19.90;53.40;;;;;;1597865;73;644;-69
2024/04/21 07:56:45;;;;;;;;;;;19.90;53.40;;;;;;1586264;73;779;-69
2024/04/21 07:58:47;;;;;;;;;;;20.00;53.40;;;;;;1592093;73;655;-73
2024/04/21 08:00:49;;;;;;;;;;;19.90;53.50;;;;;;1600175;73;1131;-76
2024/04/21 08:02:51;;;;;;;;;;;20.00;53.60;;;;;;1588061;73;1938;-77
2024/04/21 08:04:53;;;;;;;;;;;20.00;52.10;;;;;;1589107;73;1376;-69
2024/04/21 08:06:56;;;;;;;;;;;20.00;51.60;;;;;;1591074;73;687;-69
2024/04/21 08:08:58;;;;;;;;;;;20.00;51.10;;;;;;1588780;73;823;-71
2024/04/21 08:11:01;;;;;;;;;;;19.90;50.50;;;;;;1584550;73;1156;-71
2024/04/21 08:13:03;;;;;;;;;;;19.90;49.90;;;;;;1591407;73;786;-72
2024/04/21 08:15:06;;;;;;;;;;;19.90;48.90;;;;;;1592401;73;788;-69
2024/04/21 08:17:08;;;;;;;;;;;19.80;48.20;;;;;;1588691;73;740;-71
2024/04/21 08:19:10;;;;;;;;;;;19.80;48.30;;;;;;1588007;73;1554;-71
2024/04/21 08:21:12;;;;;;;;;;;19.80;48.60;;;;;;1591931;73;1936;-69
2024/04/21 08:23:16;;;;;;;;;;;19.70;48.30;;;;;;1595727;73;721;-70
2024/04/21 08:25:17;;;;;;;;;;;19.80;48.40;;;;;;1600602;73;1546;-72
2024/04/21 08:27:19;;;;;;;;;;;19.70;48.00;;;;;;1587366;73;735;-71
2024/04/21 08:29:24;;;;;;;;;;;19.70;48.10;;;;;;1592845;73;779;-71
2024/04/21 08:31:26;;;;;;;;;;;19.70;47.80;;;;;;1593864;73;1158;-69
2024/04/21 08:33:28;;;;;;;;;;;19.60;47.40;;;;;;1587141;73;1316;-67
2024/04/21 08:35:30;;;;;;;;;;;19.70;47.30;;;;;;1601577;73;686;-66
2024/04/21 08:37:32;;;;;;;;;;;19.70;47.40;;;;;;1599496;73;631;-67
2024/04/21 08:39:34;;;;;;;;;;;19.70;47.50;;;;;;1600101;73;753;-68
2024/04/21 08:41:37;;;;;;;;;;;19.60;47.20;;;;;;1594509;73;1919;-70
2024/04/21 08:43:39;;;;;;;;;;;19.60;47.00;;;;;;1590434;73;1951;-68
2024/04/21 08:45:41;;;;;;;;;;;19.70;47.20;;;;;;1593992;73;859;-68
2024/04/21 08:47:43;;;;;;;;;;;19.70;47.00;;;;;;1591493;73;1625;-67
2024/04/21 08:49:46;;;;;;;;;;;19.60;46.90;;;;;;1595989;73;1120;-68
2024/04/21 08:51:48;;;;;;;;;;;19.60;46.70;;;;;;1589787;73;664;-69
2024/04/21 08:53:50;;;;;;;;;;;19.70;46.70;;;;;;1593534;73;667;-71
2024/04/21 08:55:52;;;;;;;;;;;19.60;46.60;;;;;;1602762;73;717;-67
2024/04/21 08:57:54;;;;;;;;;;;19.60;46.50;;;;;;1597532;73;706;-70
2024/04/21 08:59:57;;;;;;;;;;;19.60;46.50;;;;;;1589632;73;1113;-68
2024/04/21 09:01:59;;;;;;;;;;;19.60;46.30;;;;;;1591989;73;1930;-69
2024/04/21 09:04:01;;;;;;;;;;;19.60;46.30;;;;;;1594440;73;676;-69
2024/04/21 09:06:03;;;;;;;;;;;19.60;46.20;;;;;;1566803;74;754;-71
2024/04/21 09:08:05;;;;;;;;;;;19.60;46.20;;;;;;1583108;73;723;-67
2024/04/21 09:10:13;;;;;;;;;;;19.50;46.00;;;;;;1582261;73;1090;-71
2024/04/21 09:12:11;;;;;;;;;;;19.60;45.90;;;;;;1583566;73;1684;-67
2024/04/21 09:14:13;;;;;;;;;;;19.50;45.90;;;;;;1586668;73;713;-67
2024/04/21 09:16:15;;;;;;;;;;;19.60;45.70;;;;;;1581677;73;1576;-67
2024/04/21 09:18:17;;;;;;;;;;;19.50;45.80;;;;;;1587890;73;827;-68
2024/04/21 09:20:19;;;;;;;;;;;19.60;45.70;;;;;;1590341;73;1135;-70
2024/04/21 09:22:21;;;;;;;;;;;19.50;45.50;;;;;;1583014;73;1997;-67
2024/04/21 09:24:23;;;;;;;;;;;19.60;45.50;;;;;;1585266;73;765;-69
2024/04/21 09:26:25;;;;;;;;;;;19.50;45.40;;;;;;1583791;73;796;-68
2024/04/21 09:28:26;;;;;;;;;;;19.60;45.50;;;;;;1580772;73;690;-69
2024/04/21 09:30:28;;;;;;;;;;;19.50;45.60;;;;;;1580418;73;1571;-69
2024/04/21 09:32:30;;;;;;;;;;;19.50;45.40;;;;;;1585810;73;673;-67
2024/04/21 09:34:32;;;;;;;;;;;19.50;45.40;;;;;;1601122;73;1024;-67
2024/04/21 09:36:34;;;;;;;;;;;19.60;45.40;;;;;;1592355;73;679;-67
2024/04/21 09:38:36;;;;;;;;;;;19.50;45.30;;;;;;1590204;73;727;-69
2024/04/21 09:40:38;;;;;;;;;;;19.60;45.30;;;;;;1592726;73;1156;-67
2024/04/21 09:42:40;;;;;;;;;;;19.50;45.20;;;;;;1587731;73;1940;-70
2024/04/21 09:44:47;;;;;;;;;;;19.50;44.90;;;;;;1586639;73;1625;-68
2024/04/21 09:46:48;;;;;;;;;;;19.50;44.80;;;;;;1583485;73;667;-70
2024/04/21 09:48:50;;;;;;;;;;;19.40;44.70;;;;;;1583516;73;742;-67
2024/04/21 09:50:52;;;;;;;;;;;19.50;44.60;;;;;;1591988;73;1146;-69
2024/04/21 09:52:56;;;;;;;;;;;19.40;44.60;;;;;;1584206;73;695;-71
2024/04/21 09:54:57;;;;;;;;;;;19.40;44.50;;;;;;1593537;73;723;-68
2024/04/21 09:57:01;;;;;;;;;;;19.40;44.70;;;;;;1590843;73;1294;-70
2024/04/21 09:59:03;;;;;;;;;;;19.40;44.50;;;;;;1592246;73;1887;-68
2024/04/21 10:01:06;;;;;;;;;;;19.50;44.70;;;;;;1587086;73;1164;-70
2024/04/21 10:03:08;;;;;;;;;;;19.40;44.50;;;;;;1591379;73;1920;-69
2024/04/21 10:05:10;;;;;;;;;;;19.40;44.40;;;;;;1585781;73;644;-66
2024/04/21 10:07:12;;;;;;;;;;;19.40;44.40;;;;;;1598713;73;648;-67
2024/04/21 10:09:15;;;;;;;;;;;19.40;44.40;;;;;;1595521;73;683;-69
2024/04/21 10:11:17;;;;;;;;;;;19.40;44.40;;;;;;1600331;73;1556;-69
2024/04/21 10:13:18;;;;;;;;;;;19.40;44.40;;;;;;1604026;73;755;-67
2024/04/21 10:15:20;;;;;;;;;;;19.40;44.30;;;;;;1589425;73;751;-69
2024/04/21 10:17:22;;;;;;;;;;;19.40;44.20;;;;;;1588078;73;691;-69
2024/04/21 10:19:25;;;;;;;;;;;19.40;44.40;;;;;;1590989;73;606;-68
2024/04/21 10:21:27;;;;;;;;;;;19.40;44.50;;;;;;1596927;73;1158;-69
2024/04/21 10:23:29;;;;;;;;;;;19.50;44.90;;;;;;1595375;73;1919;-69
2024/04/21 10:25:34;;;;;;;;;;;19.40;45.00;;;;;;1598955;73;1586;-71
2024/04/21 10:27:35;;;;;;;;;;;19.40;45.20;;;;;;1590956;73;817;-68
2024/04/21 10:29:37;;;;;;;;;;;19.50;45.50;;;;;;1592155;73;699;-70
2024/04/21 10:31:40;;;;;;;;;;;19.50;45.60;;;;;;1595031;73;1196;-66
2024/04/21 10:33:41;;;;;;;;;;;19.50;45.70;;;;;;1614315;73;707;-69
2024/04/21 10:35:43;;;;;;;;;;;19.50;45.80;;;;;;1602094;73;727;-67
2024/04/21 10:37:45;;;;;;;;;;;19.50;46.00;;;;;;1601741;73;721;-69
2024/04/21 10:39:47;;;;;;;;;;;19.50;46.10;;;;;;1597340;73;1523;-69
2024/04/21 10:41:49;;;;;;;;;;;19.60;46.20;;;;;;1604796;73;736;-67
2024/04/21 10:43:51;;;;;;;;;;;19.60;46.40;;;;;;1591437;73;1940;-69
2024/04/21 10:45:58;;;;;;;;;;;19.60;46.50;;;;;;1604687;73;810;-69
2024/04/21 10:47:59;;;;;;;;;;;19.60;46.60;;;;;;1598535;73;654;-68
2024/04/21 10:50:01;;;;;;;;;;;19.60;46.80;;;;;;1600445;73;1110;-69
2024/04/21 10:52:03;;;;;;;;;;;19.60;47.00;;;;;;1594033;73;725;-68
2024/04/21 10:54:07;;;;;;;;;;;19.60;47.10;;;;;;1598999;73;1560;-67
2024/04/21 10:56:09;;;;;;;;;;;19.60;47.40;;;;;;1553788;74;803;-69
2024/04/21 10:58:11;;;;;;;;;;;19.60;47.70;;;;;;1586710;73;671;-69
2024/04/21 11:00:13;;;;;;;;;;;19.70;48.10;;;;;;1603543;73;1134;-71
2024/04/21 11:02:15;;;;;;;;;;;19.70;48.50;;;;;;1591875;73;1901;-70
2024/04/21 11:04:17;;;;;;;;;;;20.20;48.90;;;;;;1598625;73;702;-70
2024/04/21 11:06:19;;;;;;;;;;;19.70;49.10;;;;;;1562157;74;789;-69
2024/04/21 11:08:23;;;;;;;;;;;19.70;49.40;;;;;;1592748;73;1371;-69
2024/04/21 11:10:24;;;;;;;;;;;19.70;49.50;;;;;;1598740;73;1666;-70
2024/04/21 11:12:26;;;;;;;;;;;19.70;49.80;;;;;;1596787;73;784;-68
2024/04/21 11:14:28;;;;;;;;;;;19.80;50.00;;;;;;1607540;73;608;-67
2024/04/21 11:16:30;;;;;;;;;;;19.80;50.20;;;;;;1602903;73;657;-72
2024/04/21 11:18:32;;;;;;;;;;;19.80;50.50;;;;;;1592451;73;668;-68
2024/04/21 11:20:34;;;;;;;;;;;19.80;50.70;;;;;;1602490;73;1103;-68
2024/04/21 11:22:38;;;;;;;;;;;19.80;51.00;;;;;;1587584;72;1920;-71
2024/04/21 11:24:40;;;;;;;;;;;19.80;51.20;;;;;;1588790;73;605;-69
2024/04/21 11:26:42;;;;;;;;;;;19.80;51.60;;;;;;1593421;73;626;-68
2024/04/21 11:28:44;;;;;;;;;;;19.90;58.00;;;;;;1596020;73;816;-70
2024/04/21 11:30:47;;;;;;;;;;;19.90;54.90;;;;;;1597839;73;1134;-71
2024/04/21 11:32:49;;;;;;;;;;;19.90;54.60;;;;;;1588499;73;709;-72
2024/04/21 11:34:51;;;;;;;;;;;19.80;54.40;;;;;;1589368;73;754;-71
2024/04/21 11:36:53;;;;;;;;;;;20.10;54.50;;;;;;1601684;73;1548;-69
2024/04/21 11:38:55;;;;;;;;;;;20.00;54.20;;;;;;1595212;73;732;-67
2024/04/21 11:40:57;;;;;;;;;;;20.00;55.50;;;;;;1594934;73;1183;-72
2024/04/21 11:42:58;;;;;;;;;;;20.00;55.00;;;;;;1588696;73;1926;-73
2024/04/21 11:45:00;;;;;;;;;;;20.00;54.90;;;;;;1590221;73;705;-69
2024/04/21 11:47:02;;;;;;;;;;;20.00;55.00;;;;;;1598389;73;791;-68
2024/04/21 11:49:05;;;;;;;;;;;20.00;55.00;;;;;;1595336;73;668;-69
2024/04/21 11:51:07;;;;;;;;;;;20.00;55.10;;;;;;1587648;73;1571;-70
2024/04/21 11:53:08;;;;;;;;;;;20.00;55.20;;;;;;1585619;73;822;-69
2024/04/21 11:55:10;;;;;;;;;;;20.00;55.40;;;;;;1602419;73;684;-70
2024/04/21 11:57:12;;;;;;;;;;;20.00;55.50;;;;;;1596779;73;671;-73
2024/04/21 11:59:14;;;;;;;;;;;20.00;55.40;;;;;;1604736;73;748;-70
2024/04/21 12:01:16;;;;;;;;;;;20.00;55.60;;;;;;1602015;73;1083;-71
2024/04/21 12:03:18;;;;;;;;;;;20.00;55.70;;;;;;1592824;73;1937;-71
2024/04/21 12:05:20;;;;;;;;;;;20.00;55.60;;;;;;1591971;73;1465;-70
2024/04/21 12:07:22;;;;;;;;;;;20.00;55.70;;;;;;1588189;73;747;-70